createdAt,value
2018-01-17T00:00:01.416Z,26.3
2018-01-17T00:01:02.152Z,24.6
2018-01-17T00:02:02.968Z,22.8
2018-01-17T00:03:03.751Z,27.3
2018-01-17T00:04:04.555Z,24.8
2018-01-17T00:05:05.368Z,23.0
2018-01-17T00:06:06.085Z,27.0
2018-01-17T00:07:06.811Z,23.4
2018-01-17T00:08:07.532Z,20.9
2018-01-17T00:09:08.251Z,21.8
2018-01-17T00:10:09.284Z,25.0
2018-01-17T00:11:10.012Z,20.1
2018-01-17T00:12:10.732Z,25.7
2018-01-17T00:13:11.532Z,19.3
2018-01-17T00:14:12.253Z,19.5
2018-01-17T00:15:13.042Z,25.5
2018-01-17T00:16:13.823Z,19.5
2018-01-17T00:17:14.546Z,21.9
2018-01-17T00:18:15.366Z,22.9
2018-01-17T00:19:16.102Z,21.7
2018-01-17T00:20:16.831Z,25.4
2018-01-17T00:21:17.548Z,23.1
2018-01-17T00:22:18.262Z,21.0
2018-01-17T00:23:18.993Z,20.2
2018-01-17T00:24:19.841Z,21.1
2018-01-17T00:25:20.585Z,21.8
2018-01-17T00:26:21.303Z,19.4
2018-01-17T00:27:22.091Z,16.2
2018-01-17T00:28:22.811Z,17.6
2018-01-17T00:29:23.592Z,22.7
2018-01-17T00:30:24.390Z,19.6
2018-01-17T00:31:25.122Z,19.9
2018-01-17T00:32:25.851Z,19.8
2018-01-17T00:33:26.576Z,22.4
2018-01-17T00:34:27.423Z,22.3
2018-01-17T00:35:28.146Z,18.1
2018-01-17T00:36:28.891Z,19.6
2018-01-17T00:37:29.622Z,23.7
2018-01-17T00:38:30.351Z,18.2
2018-01-17T00:39:31.210Z,16.7
2018-01-17T00:40:31.948Z,17.0
2018-01-17T00:41:32.664Z,14.2
2018-01-17T00:42:33.391Z,18.8
2018-01-17T00:43:34.111Z,16.1
2018-01-17T00:44:34.831Z,17.0
2018-01-17T00:45:35.550Z,19.2
2018-01-17T00:46:36.572Z,12.5
2018-01-17T00:47:37.284Z,16.1
2018-01-17T00:48:38.022Z,15.7
2018-01-17T00:49:38.726Z,14.7
2018-01-17T00:50:39.449Z,14.8
2018-01-17T00:51:40.228Z,14.5
2018-01-17T00:52:40.939Z,15.4
2018-01-17T00:53:41.667Z,13.7
2018-01-17T00:54:42.462Z,12.5
2018-01-17T00:55:43.198Z,18.3
2018-01-17T00:56:43.916Z,15.7
2018-01-17T00:57:44.692Z,15.7
2018-01-17T00:58:45.470Z,14.7
2018-01-17T00:59:46.201Z,16.5
2018-01-17T01:00:47.000Z,17.2
2018-01-17T01:01:47.742Z,19.1
2018-01-17T01:02:48.461Z,18.2
2018-01-17T01:03:49.184Z,18.3
2018-01-17T01:04:49.910Z,23.0
2018-01-17T01:05:50.640Z,20.3
2018-01-17T01:06:51.368Z,18.8
2018-01-17T01:07:52.080Z,26.7
2018-01-17T01:08:52.871Z,19.1
2018-01-17T01:09:53.592Z,26.2
2018-01-17T01:10:54.389Z,19.3
2018-01-17T01:11:55.128Z,28.2
2018-01-17T01:12:55.921Z,19.5
2018-01-17T01:13:56.654Z,21.7
2018-01-17T01:14:57.385Z,24.3
2018-01-17T01:15:58.106Z,18.7
2018-01-17T01:16:58.881Z,22.6
2018-01-17T01:17:59.601Z,29.3
2018-01-17T01:19:00.382Z,22.7
2018-01-17T01:20:01.104Z,27.2
2018-01-17T01:21:01.825Z,26.7
2018-01-17T01:22:02.550Z,24.5
2018-01-17T01:23:03.573Z,21.2
2018-01-17T01:24:04.360Z,18.1
2018-01-17T01:25:05.072Z,23.7
2018-01-17T01:27:20.146Z,26.5
2018-01-17T01:28:20.941Z,20.1
2018-01-17T01:29:21.662Z,23.5
2018-01-17T01:30:22.392Z,23.8
2018-01-17T01:31:23.118Z,22.9
2018-01-17T01:32:23.842Z,28.2
2018-01-17T01:33:24.561Z,30.2
2018-01-17T01:34:25.323Z,26.1
2018-01-17T01:35:26.052Z,28.8
2018-01-17T01:36:26.770Z,27.0
2018-01-17T01:37:27.500Z,28.5
2018-01-17T01:38:28.211Z,22.3
2018-01-17T01:39:29.241Z,34.0
2018-01-17T01:40:29.952Z,30.0
2018-01-17T01:41:30.762Z,29.8
2018-01-17T01:42:31.492Z,33.3
2018-01-17T01:43:32.221Z,27.6
2018-01-17T01:44:32.944Z,29.3
2018-01-17T01:45:33.664Z,30.7
2018-01-17T01:46:34.436Z,34.0
2018-01-17T01:47:35.172Z,38.0
2018-01-17T01:48:35.894Z,35.0
2018-01-17T01:49:36.630Z,31.6
2018-01-17T01:50:37.370Z,34.2
2018-01-17T01:51:38.512Z,36.8
2018-01-17T01:52:39.185Z,43.1
2018-01-17T01:53:39.901Z,34.4
2018-01-17T01:54:40.630Z,41.7
2018-01-17T01:55:41.346Z,35.8
2018-01-17T01:56:42.062Z,35.6
2018-01-17T01:57:42.790Z,38.5
2018-01-17T01:58:43.518Z,40.5
2018-01-17T01:59:44.291Z,45.7
2018-01-17T02:00:45.015Z,40.8
2018-01-17T02:01:46.041Z,38.2
2018-01-17T02:02:46.771Z,37.4
2018-01-17T02:03:47.492Z,35.7
2018-01-17T02:04:48.231Z,41.3
2018-01-17T02:05:48.962Z,38.2
2018-01-17T02:06:49.991Z,34.0
2018-01-17T02:07:50.728Z,37.8
2018-01-17T02:08:51.501Z,30.1
2018-01-17T02:09:52.232Z,35.1
2018-01-17T02:10:52.940Z,34.3
2018-01-17T02:11:53.654Z,30.2
2018-01-17T02:12:54.382Z,39.0
2018-01-17T02:13:55.101Z,33.1
2018-01-17T02:14:55.821Z,35.2
2018-01-17T02:15:56.531Z,32.3
2018-01-17T02:16:57.261Z,33.4
2018-01-17T02:17:57.981Z,31.9
2018-01-17T02:18:58.714Z,27.7
2018-01-17T02:19:59.472Z,35.7
2018-01-17T02:21:00.200Z,24.8
2018-01-17T02:22:00.942Z,30.8
2018-01-17T02:23:01.681Z,25.0
2018-01-17T02:24:02.409Z,27.2
2018-01-17T02:25:03.202Z,26.5
2018-01-17T02:26:03.931Z,33.0
2018-01-17T02:27:04.686Z,22.4
2018-01-17T02:28:05.416Z,25.6
2018-01-17T02:29:06.222Z,23.8
2018-01-17T02:30:07.264Z,32.6
2018-01-17T02:31:08.041Z,28.9
2018-01-17T02:32:08.769Z,36.7
2018-01-17T02:33:09.491Z,29.8
2018-01-17T02:34:10.211Z,27.8
2018-01-17T02:35:10.990Z,24.7
2018-01-17T02:36:11.732Z,21.4
2018-01-17T02:37:12.457Z,18.7
2018-01-17T02:38:13.164Z,12.7
2018-01-17T02:39:13.874Z,8.7
2018-01-17T02:40:14.603Z,16.7
2018-01-17T02:41:15.394Z,4.0
2018-01-17T02:42:16.202Z,3.1
2018-01-17T02:43:16.980Z,3.0
2018-01-17T02:44:17.695Z,3.0
2018-01-17T02:45:18.471Z,7.1
2018-01-17T02:46:19.261Z,2.8
2018-01-17T02:47:19.975Z,2.6
2018-01-17T02:48:20.752Z,2.5
2018-01-17T02:49:21.468Z,2.9
2018-01-17T02:50:22.252Z,3.1
2018-01-17T02:51:23.023Z,2.9
2018-01-17T02:52:23.777Z,3.6
2018-01-17T02:53:24.567Z,5.1
2018-01-17T02:54:25.289Z,4.2
2018-01-17T02:55:25.995Z,4.6
2018-01-17T02:56:26.727Z,4.8
2018-01-17T02:57:27.520Z,5.3
2018-01-17T02:58:28.294Z,5.7
2018-01-17T02:59:29.070Z,5.3
2018-01-17T03:00:29.797Z,6.4
2018-01-17T03:01:30.595Z,6.4
2018-01-17T03:02:31.618Z,5.6
2018-01-17T03:03:32.342Z,6.5
2018-01-17T03:04:33.067Z,6.6
2018-01-17T03:05:33.782Z,5.9
2018-01-17T03:06:34.503Z,6.0
2018-01-17T03:07:35.300Z,6.1
2018-01-17T03:08:36.034Z,6.4
2018-01-17T03:09:36.794Z,5.0
2018-01-17T03:10:37.574Z,6.0
2018-01-17T03:11:38.237Z,6.3
2018-01-17T03:12:38.991Z,7.7
2018-01-17T03:13:39.713Z,6.7
2018-01-17T03:14:40.442Z,5.9
2018-01-17T03:15:41.172Z,6.3
2018-01-17T03:16:41.894Z,6.6
2018-01-17T03:17:42.676Z,6.2
2018-01-17T03:18:43.451Z,7.8
2018-01-17T03:19:44.172Z,6.6
2018-01-17T03:20:44.913Z,6.4
2018-01-17T03:21:45.691Z,6.2
2018-01-17T03:22:46.411Z,6.5
2018-01-17T03:23:47.122Z,5.6
2018-01-17T03:24:47.838Z,6.0
2018-01-17T03:25:48.571Z,4.6
2018-01-17T03:26:49.303Z,4.3
2018-01-17T03:27:50.101Z,5.5
2018-01-17T03:28:50.816Z,6.2
2018-01-17T03:29:51.532Z,4.6
2018-01-17T03:30:52.253Z,5.4
2018-01-17T03:31:53.069Z,6.4
2018-01-17T03:32:53.784Z,6.1
2018-01-17T03:33:54.516Z,6.8
2018-01-17T03:34:55.299Z,6.4
2018-01-17T03:35:56.011Z,7.6
2018-01-17T03:36:56.734Z,7.5
2018-01-17T03:37:57.508Z,7.4
2018-01-17T03:38:58.230Z,8.1
2018-01-17T03:39:58.957Z,7.8
2018-01-17T03:40:59.672Z,8.6
2018-01-17T03:42:00.402Z,8.9
2018-01-17T03:43:01.121Z,7.9
2018-01-17T03:44:01.842Z,6.7
2018-01-17T03:45:02.627Z,7.7
2018-01-17T03:46:03.402Z,7.2
2018-01-17T03:47:04.111Z,6.8
2018-01-17T03:48:04.823Z,8.6
2018-01-17T03:49:05.536Z,9.1
2018-01-17T03:50:06.241Z,12.9
2018-01-17T03:51:07.012Z,9.9
2018-01-17T03:52:07.731Z,10.2
2018-01-17T03:53:08.448Z,11.3
2018-01-17T03:54:09.225Z,12.0
2018-01-17T03:55:09.960Z,13.0
2018-01-17T03:56:10.740Z,12.4
2018-01-17T03:57:17.788Z,14.2
2018-01-17T03:58:18.526Z,17.0
2018-01-17T03:59:19.264Z,15.3
2018-01-17T04:00:19.993Z,17.2
2018-01-17T04:01:20.716Z,18.3
2018-01-17T04:02:21.441Z,16.8
2018-01-17T04:03:22.109Z,14.5
2018-01-17T04:04:22.835Z,15.5
2018-01-17T04:05:23.560Z,16.4
2018-01-17T04:06:24.282Z,14.5
2018-01-17T04:07:25.067Z,17.3
2018-01-17T04:08:25.795Z,17.2
2018-01-17T04:09:26.504Z,15.4
2018-01-17T04:10:27.222Z,15.7
2018-01-17T04:11:27.969Z,19.1
2018-01-17T04:12:29.003Z,16.4
2018-01-17T04:13:29.731Z,19.4
2018-01-17T04:14:30.455Z,16.6
2018-01-17T04:15:31.184Z,14.9
2018-01-17T04:16:31.919Z,16.0
2018-01-17T04:17:32.697Z,19.4
2018-01-17T04:18:33.504Z,15.9
2018-01-17T04:19:34.305Z,20.4
2018-01-17T04:20:35.099Z,18.7
2018-01-17T04:21:35.871Z,16.0
2018-01-17T04:22:36.593Z,16.0
2018-01-17T04:23:37.332Z,14.3
2018-01-17T04:24:38.120Z,15.3
2018-01-17T04:25:38.911Z,17.8
2018-01-17T04:26:39.650Z,17.2
2018-01-17T04:27:40.365Z,15.8
2018-01-17T04:28:41.091Z,13.5
2018-01-17T04:29:41.806Z,11.5
2018-01-17T04:30:42.529Z,12.7
2018-01-17T04:31:43.320Z,17.3
2018-01-17T04:32:44.030Z,15.8
2018-01-17T04:33:44.832Z,13.7
2018-01-17T04:34:45.617Z,16.0
2018-01-17T04:35:46.346Z,13.4
2018-01-17T04:36:47.073Z,21.2
2018-01-17T04:37:47.875Z,18.3
2018-01-17T04:38:48.634Z,16.7
2018-01-17T04:39:49.391Z,16.2
2018-01-17T04:40:50.120Z,22.1
2018-01-17T04:41:50.844Z,17.3
2018-01-17T04:42:51.580Z,22.7
2018-01-17T04:43:52.284Z,19.8
2018-01-17T04:44:52.996Z,13.6
2018-01-17T04:45:53.726Z,18.6
2018-01-17T04:46:54.531Z,20.5
2018-01-17T04:47:55.236Z,18.1
2018-01-17T04:48:56.034Z,18.0
2018-01-17T04:49:56.788Z,18.3
2018-01-17T04:50:57.507Z,23.3
2018-01-17T04:51:58.250Z,21.1
2018-01-17T04:52:59.260Z,21.4
2018-01-17T04:53:59.960Z,21.3
2018-01-17T04:55:00.686Z,23.2
2018-01-17T04:56:01.414Z,20.0
2018-01-17T04:57:02.132Z,27.2
2018-01-17T04:58:02.905Z,24.4
2018-01-17T04:59:03.628Z,28.3
2018-01-17T05:00:04.345Z,27.1
2018-01-17T05:01:05.157Z,28.2
2018-01-17T05:02:05.944Z,28.9
2018-01-17T05:03:06.973Z,24.8
2018-01-17T05:04:07.705Z,31.8
2018-01-17T05:05:08.434Z,38.0
2018-01-17T05:06:09.178Z,37.0
2018-01-17T05:07:09.974Z,28.2
2018-01-17T05:08:10.828Z,27.8
2018-01-17T05:09:11.550Z,31.2
2018-01-17T05:10:12.270Z,33.3
2018-01-17T05:11:12.979Z,30.4
2018-01-17T05:12:13.794Z,29.5
2018-01-17T05:13:14.512Z,27.8
2018-01-17T05:14:15.247Z,31.3
2018-01-17T05:15:15.960Z,29.7
2018-01-17T05:16:16.693Z,33.6
2018-01-17T05:17:17.402Z,32.5
2018-01-17T05:18:18.143Z,30.7
2018-01-17T05:19:18.994Z,33.7
2018-01-17T05:20:19.778Z,32.4
2018-01-17T05:21:20.563Z,29.9
2018-01-17T05:22:21.325Z,36.5
2018-01-17T05:23:22.044Z,31.5
2018-01-17T05:24:22.807Z,35.2
2018-01-17T05:25:23.529Z,42.1
2018-01-17T05:26:24.251Z,36.4
2018-01-17T05:27:24.975Z,34.5
2018-01-17T05:28:25.699Z,33.5
2018-01-17T05:29:26.419Z,31.8
2018-01-17T05:30:27.431Z,35.0
2018-01-17T05:31:28.159Z,32.7
2018-01-17T05:32:28.879Z,33.6
2018-01-17T05:33:29.610Z,32.1
2018-01-17T05:34:30.421Z,33.2
2018-01-17T05:35:31.261Z,31.5
2018-01-17T05:36:31.977Z,30.2
2018-01-17T05:37:32.772Z,35.6
2018-01-17T05:38:33.511Z,29.9
2018-01-17T05:39:34.236Z,32.6
2018-01-17T05:40:34.982Z,32.2
2018-01-17T05:41:35.695Z,26.3
2018-01-17T05:42:36.436Z,34.0
2018-01-17T05:43:37.245Z,31.2
2018-01-17T05:44:37.969Z,26.9
2018-01-17T05:45:38.690Z,31.0
2018-01-17T05:46:39.405Z,36.3
2018-01-17T05:47:40.125Z,29.6
2018-01-17T05:48:40.850Z,26.5
2018-01-17T05:49:41.577Z,30.5
2018-01-17T05:50:42.326Z,33.6
2018-01-17T05:51:43.053Z,28.7
2018-01-17T05:52:43.820Z,34.7
2018-01-17T05:53:44.592Z,25.5
2018-01-17T05:54:45.328Z,29.1
2018-01-17T05:55:46.080Z,30.7
2018-01-17T05:56:46.774Z,29.3
2018-01-17T05:57:47.553Z,27.5
2018-01-17T05:58:48.274Z,35.9
2018-01-17T05:59:48.980Z,31.2
2018-01-17T06:00:49.698Z,33.3
2018-01-17T06:01:50.454Z,36.7
2018-01-17T06:02:51.189Z,26.4
2018-01-17T06:03:51.915Z,27.6
2018-01-17T06:04:52.633Z,29.7
2018-01-17T06:05:53.376Z,28.6
2018-01-17T06:06:54.088Z,35.6
2018-01-17T06:07:54.805Z,29.6
2018-01-17T06:08:55.590Z,27.1
2018-01-17T06:09:56.370Z,28.5
2018-01-17T06:10:57.104Z,31.4
2018-01-17T06:11:57.832Z,31.0
2018-01-17T06:12:58.556Z,28.2
2018-01-17T06:13:59.284Z,28.1
2018-01-17T06:15:00.017Z,29.7
2018-01-17T06:16:00.760Z,27.6
2018-01-17T06:17:01.502Z,26.3
2018-01-17T06:18:02.227Z,22.0
2018-01-17T06:19:02.951Z,26.1
2018-01-17T06:20:03.684Z,24.8
2018-01-17T06:21:04.463Z,29.3
2018-01-17T06:22:05.199Z,27.0
2018-01-17T06:23:05.924Z,25.5
2018-01-17T06:24:06.632Z,23.3
2018-01-17T06:25:07.389Z,19.6
2018-01-17T06:26:08.147Z,34.5
2018-01-17T06:27:08.905Z,23.2
2018-01-17T06:28:09.681Z,22.7
2018-01-17T06:29:10.413Z,27.7
2018-01-17T06:30:11.146Z,15.8
2018-01-17T06:31:12.255Z,21.8
2018-01-17T06:32:12.974Z,24.2
2018-01-17T06:33:13.716Z,19.1
2018-01-17T06:34:14.512Z,15.3
2018-01-17T06:35:15.221Z,28.8
2018-01-17T06:36:16.015Z,19.5
2018-01-17T06:37:16.814Z,22.0
2018-01-17T06:38:17.519Z,21.1
2018-01-17T06:39:18.236Z,22.8
2018-01-17T06:40:18.979Z,20.8
2018-01-17T06:41:19.825Z,16.6
2018-01-17T06:42:20.561Z,18.0
2018-01-17T06:43:21.273Z,25.3
2018-01-17T06:44:22.003Z,26.2
2018-01-17T06:45:22.730Z,22.7
2018-01-17T06:46:23.454Z,18.8
2018-01-17T06:47:24.232Z,22.1
2018-01-17T06:48:24.891Z,21.0
2018-01-17T06:49:25.704Z,23.6
2018-01-17T06:50:26.423Z,20.7
2018-01-17T06:51:27.146Z,22.9
2018-01-17T06:52:27.962Z,23.3
2018-01-17T06:53:28.691Z,25.4
2018-01-17T06:54:29.428Z,25.3
2018-01-17T06:55:30.141Z,28.7
2018-01-17T06:56:30.893Z,26.7
2018-01-17T06:57:31.684Z,32.1
2018-01-17T06:58:32.415Z,30.5
2018-01-17T06:59:33.219Z,36.9
2018-01-17T07:00:34.002Z,28.4
2018-01-17T07:01:34.739Z,35.4
2018-01-17T07:02:36.105Z,33.2
2018-01-17T07:04:51.046Z,33.3
2018-01-17T07:05:51.784Z,29.3
2018-01-17T07:06:52.514Z,30.9
2018-01-17T07:07:53.234Z,29.7
2018-01-17T07:08:53.976Z,34.5
2018-01-17T07:09:54.745Z,32.0
2018-01-17T07:10:55.465Z,31.0
2018-01-17T07:11:56.156Z,27.7
2018-01-17T07:12:56.893Z,40.1
2018-01-17T07:13:57.659Z,26.2
2018-01-17T07:14:58.396Z,27.1
2018-01-17T07:15:59.256Z,24.6
2018-01-17T07:17:00.031Z,24.2
2018-01-17T07:18:00.736Z,27.1
2018-01-17T07:19:01.461Z,20.4
2018-01-17T07:20:02.299Z,21.5
2018-01-17T07:21:03.034Z,20.9
2018-01-17T07:22:03.744Z,22.7
2018-01-17T07:23:04.581Z,22.8
2018-01-17T07:24:05.312Z,18.8
2018-01-17T07:25:06.100Z,24.5
2018-01-17T07:26:06.892Z,22.3
2018-01-17T07:27:07.614Z,24.6
2018-01-17T07:28:08.403Z,22.7
2018-01-17T07:29:09.199Z,19.5
2018-01-17T07:30:09.935Z,20.8
2018-01-17T07:31:10.675Z,25.7
2018-01-17T07:32:11.394Z,22.0
2018-01-17T07:33:12.129Z,17.9
2018-01-17T07:34:12.875Z,18.7
2018-01-17T07:35:13.617Z,16.3
2018-01-17T07:36:14.330Z,15.7
2018-01-17T07:37:15.063Z,16.0
2018-01-17T07:38:15.800Z,15.5
2018-01-17T07:39:16.562Z,15.2
2018-01-17T07:40:17.339Z,15.7
2018-01-17T07:41:18.013Z,16.2
2018-01-17T07:42:18.756Z,19.2
2018-01-17T07:43:19.540Z,20.0
2018-01-17T07:44:20.563Z,18.6
2018-01-17T07:45:21.296Z,21.9
2018-01-17T07:46:22.089Z,19.5
2018-01-17T07:47:22.824Z,20.7
2018-01-17T07:48:23.545Z,25.0
2018-01-17T07:49:24.580Z,21.3
2018-01-17T07:50:25.355Z,20.1
2018-01-17T07:51:26.070Z,26.1
2018-01-17T07:52:26.805Z,26.7
2018-01-17T07:53:27.509Z,21.3
2018-01-17T07:54:28.241Z,24.1
2018-01-17T07:55:28.969Z,26.6
2018-01-17T07:56:29.694Z,24.8
2018-01-17T07:57:30.720Z,25.9
2018-01-17T07:58:31.442Z,26.4
2018-01-17T07:59:32.185Z,26.8
2018-01-17T08:00:32.938Z,26.6
2018-01-17T08:01:33.667Z,25.7
2018-01-17T08:02:34.433Z,24.1
2018-01-17T08:03:35.164Z,26.1
2018-01-17T08:04:35.905Z,26.2
2018-01-17T08:05:36.694Z,24.8
2018-01-17T08:06:37.423Z,33.2
2018-01-17T08:07:38.155Z,27.9
2018-01-17T08:08:38.949Z,31.2
2018-01-17T08:09:39.721Z,27.2
2018-01-17T08:10:40.445Z,28.6
2018-01-17T08:11:41.266Z,29.8
2018-01-17T08:12:41.991Z,32.3
2018-01-17T08:13:42.714Z,30.0
2018-01-17T08:14:43.492Z,25.9
2018-01-17T08:15:44.269Z,24.0
2018-01-17T08:16:44.989Z,29.4
2018-01-17T08:17:45.717Z,23.1
2018-01-17T08:18:46.450Z,31.4
2018-01-17T08:19:47.302Z,26.1
2018-01-17T08:20:48.030Z,19.6
2018-01-17T08:21:48.843Z,26.3
2018-01-17T08:22:49.628Z,17.1
2018-01-17T08:23:50.364Z,15.8
2018-01-17T08:24:51.160Z,15.1
2018-01-17T08:25:51.993Z,17.3
2018-01-17T08:26:52.792Z,16.5
2018-01-17T08:27:53.530Z,18.7
2018-01-17T08:28:54.220Z,13.5
2018-01-17T08:29:55.275Z,13.6
2018-01-17T08:30:56.070Z,16.1
2018-01-17T08:31:56.867Z,13.3
2018-01-17T08:32:57.673Z,16.5
2018-01-17T08:33:58.400Z,12.0
2018-01-17T08:34:59.160Z,17.2
2018-01-17T08:35:59.930Z,13.8
2018-01-17T08:37:00.735Z,13.3
2018-01-17T08:38:01.455Z,18.1
2018-01-17T08:39:02.176Z,10.8
2018-01-17T08:40:02.914Z,13.4
2018-01-17T08:41:03.673Z,14.4
2018-01-17T08:42:04.403Z,15.2
2018-01-17T08:43:05.137Z,9.4
2018-01-17T08:44:05.875Z,9.9
2018-01-17T08:45:06.669Z,7.6
2018-01-17T08:46:07.444Z,13.3
2018-01-17T08:47:08.193Z,9.8
2018-01-17T08:48:08.879Z,14.0
2018-01-17T08:49:09.606Z,8.0
2018-01-17T08:50:10.344Z,7.6
2018-01-17T08:51:11.100Z,7.5
2018-01-17T08:52:11.831Z,12.7
2018-01-17T08:53:12.912Z,10.1
2018-01-17T08:54:13.651Z,7.8
2018-01-17T08:55:14.472Z,9.4
2018-01-17T08:56:15.220Z,7.5
2018-01-17T08:57:15.955Z,7.5
2018-01-17T08:58:16.704Z,12.0
2018-01-17T08:59:17.504Z,8.4
2018-01-17T09:00:18.230Z,9.7
2018-01-17T09:01:18.938Z,7.7
2018-01-17T09:02:19.756Z,10.3
2018-01-17T09:03:20.586Z,11.7
2018-01-17T09:04:21.315Z,10.2
2018-01-17T09:05:22.045Z,8.6
2018-01-17T09:06:22.776Z,9.0
2018-01-17T09:07:23.507Z,7.6
2018-01-17T09:08:24.314Z,10.4
2018-01-17T09:09:25.039Z,7.5
2018-01-17T09:10:25.761Z,9.7
2018-01-17T09:11:26.505Z,7.0
2018-01-17T09:12:27.234Z,8.3
2018-01-17T09:13:27.950Z,8.5
2018-01-17T09:14:28.676Z,11.3
2018-01-17T09:15:29.456Z,6.7
2018-01-17T09:16:30.244Z,5.2
2018-01-17T09:17:30.975Z,6.4
2018-01-17T09:18:31.746Z,7.9
2018-01-17T09:19:32.477Z,8.6
2018-01-17T09:20:33.251Z,8.5
2018-01-17T09:21:33.935Z,5.2
2018-01-17T09:22:34.665Z,4.7
2018-01-17T09:23:35.449Z,8.2
2018-01-17T09:24:36.214Z,9.1
2018-01-17T09:25:37.007Z,5.0
2018-01-17T09:26:37.797Z,6.3
2018-01-17T09:27:38.519Z,4.8
2018-01-17T09:28:39.245Z,6.2
2018-01-17T09:29:39.979Z,8.8
2018-01-17T09:30:40.787Z,5.6
2018-01-17T09:31:41.595Z,4.4
2018-01-17T09:32:42.331Z,7.4
2018-01-17T09:33:43.078Z,6.3
2018-01-17T09:34:43.823Z,6.6
2018-01-17T09:35:44.553Z,5.9
2018-01-17T09:36:45.305Z,4.9
2018-01-17T09:37:46.110Z,4.7
2018-01-17T09:38:46.891Z,6.3
2018-01-17T09:39:47.644Z,4.8
2018-01-17T09:40:48.771Z,6.0
2018-01-17T09:41:49.707Z,6.4
2018-01-17T09:42:50.644Z,5.2
2018-01-17T09:43:51.381Z,8.5
2018-01-17T09:44:52.059Z,4.7
2018-01-17T09:45:52.776Z,4.9
2018-01-17T09:46:53.484Z,3.6
2018-01-17T09:47:54.212Z,4.5
2018-01-17T09:48:54.929Z,7.6
2018-01-17T09:49:55.664Z,5.2
2018-01-17T09:50:56.380Z,5.2
2018-01-17T09:51:57.090Z,8.0
2018-01-17T09:52:57.827Z,4.8
2018-01-17T09:53:58.552Z,4.5
2018-01-17T09:54:59.215Z,3.4
2018-01-17T09:55:59.960Z,8.7
2018-01-17T09:57:00.689Z,7.6
2018-01-17T09:58:01.420Z,4.2
2018-01-17T09:59:02.158Z,5.8
2018-01-17T10:00:03.192Z,4.4
2018-01-17T10:01:03.986Z,6.9
2018-01-17T10:02:04.701Z,4.7
2018-01-17T10:03:05.438Z,3.5
2018-01-17T10:04:06.209Z,4.2
2018-01-17T10:05:06.970Z,5.6
2018-01-17T10:06:07.712Z,7.0
2018-01-17T10:07:08.484Z,6.7
2018-01-17T10:08:09.250Z,4.1
2018-01-17T10:09:09.971Z,5.3
2018-01-17T10:10:10.693Z,4.5
2018-01-17T10:11:11.488Z,6.5
2018-01-17T10:12:12.242Z,5.3
2018-01-17T10:13:13.042Z,5.9
2018-01-17T10:14:13.864Z,3.9
2018-01-17T10:15:14.576Z,8.3
2018-01-17T10:16:15.392Z,7.1
2018-01-17T10:17:16.118Z,4.5
2018-01-17T10:18:16.951Z,5.2
2018-01-17T10:19:17.653Z,4.7
2018-01-17T10:20:18.458Z,7.1
2018-01-17T10:21:19.218Z,4.6
2018-01-17T10:22:19.975Z,6.8
2018-01-17T10:23:20.700Z,11.7
2018-01-17T10:24:21.410Z,5.9
2018-01-17T10:25:22.144Z,4.9
2018-01-17T10:26:22.944Z,6.7
2018-01-17T10:27:23.672Z,4.3
2018-01-17T10:28:24.420Z,4.9
2018-01-17T10:29:25.144Z,4.7
2018-01-17T10:30:25.864Z,3.9
2018-01-17T10:31:26.584Z,7.3
2018-01-17T10:32:27.623Z,9.3
2018-01-17T10:33:28.390Z,6.2
2018-01-17T10:34:29.107Z,5.9
2018-01-17T10:35:29.840Z,4.4
2018-01-17T10:36:30.618Z,4.5
2018-01-17T10:37:31.340Z,6.4
2018-01-17T10:38:32.076Z,6.6
2018-01-17T10:39:32.798Z,5.2
2018-01-17T10:40:33.570Z,5.9
2018-01-17T10:41:34.310Z,4.5
2018-01-17T10:42:35.029Z,5.9
2018-01-17T10:43:35.755Z,4.6
2018-01-17T10:44:36.479Z,5.2
2018-01-17T10:45:37.204Z,8.2
2018-01-17T10:46:37.937Z,4.5
2018-01-17T10:47:38.668Z,5.4
2018-01-17T10:48:39.404Z,4.7
2018-01-17T10:49:40.141Z,6.7
2018-01-17T10:50:40.937Z,5.2
2018-01-17T10:51:41.644Z,4.3
2018-01-17T10:52:42.375Z,6.8
2018-01-17T10:53:43.152Z,3.8
2018-01-17T10:54:43.885Z,6.7
2018-01-17T10:55:44.623Z,8.6
2018-01-17T10:56:45.348Z,4.1
2018-01-17T10:57:46.134Z,4.8
2018-01-17T10:58:47.156Z,7.7
2018-01-17T10:59:47.885Z,6.6
2018-01-17T11:00:48.622Z,3.6
2018-01-17T11:01:49.344Z,5.0
2018-01-17T11:02:50.115Z,5.7
2018-01-17T11:03:50.896Z,3.8
2018-01-17T11:04:51.624Z,5.8
2018-01-17T11:05:52.338Z,7.4
2018-01-17T11:06:53.073Z,4.5
2018-01-17T11:07:53.786Z,6.0
2018-01-17T11:08:54.523Z,3.5
2018-01-17T11:09:55.377Z,3.5
2018-01-17T11:10:56.094Z,6.8
2018-01-17T11:11:56.820Z,6.1
2018-01-17T11:12:57.575Z,6.0
2018-01-17T11:13:58.330Z,7.9
2018-01-17T11:14:59.139Z,4.6
2018-01-17T11:15:59.914Z,4.3
2018-01-17T11:17:00.687Z,5.2
2018-01-17T11:18:01.425Z,7.4
2018-01-17T11:19:02.163Z,8.4
2018-01-17T11:20:02.905Z,5.1
2018-01-17T11:21:03.635Z,6.5
2018-01-17T11:22:04.409Z,4.8
2018-01-17T11:23:05.114Z,7.3
2018-01-17T11:24:05.839Z,8.1
2018-01-17T11:25:06.549Z,6.6
2018-01-17T11:26:07.348Z,5.2
2018-01-17T11:27:08.134Z,7.6
2018-01-17T11:28:08.860Z,13.4
2018-01-17T11:29:09.670Z,4.8
2018-01-17T11:30:10.391Z,4.7
2018-01-17T11:31:11.412Z,11.6
2018-01-17T11:32:12.133Z,10.6
2018-01-17T11:33:12.853Z,13.9
2018-01-17T11:34:13.581Z,8.7
2018-01-17T11:35:14.357Z,9.7
2018-01-17T11:36:15.153Z,11.4
2018-01-17T11:37:15.874Z,7.1
2018-01-17T11:38:16.603Z,11.4
2018-01-17T11:39:17.284Z,8.5
2018-01-17T11:40:18.015Z,10.0
2018-01-17T11:41:18.749Z,6.9
2018-01-17T11:42:19.540Z,8.2
2018-01-17T11:43:20.274Z,10.3
2018-01-17T11:44:20.990Z,5.0
2018-01-17T11:45:21.723Z,8.6
2018-01-17T11:46:22.614Z,9.0
2018-01-17T11:47:23.335Z,7.2
2018-01-17T11:48:24.067Z,7.6
2018-01-17T11:49:24.795Z,10.4
2018-01-17T11:50:25.597Z,9.5
2018-01-17T11:51:26.325Z,13.7
2018-01-17T11:52:27.045Z,9.5
2018-01-17T11:53:27.770Z,14.6
2018-01-17T11:54:28.509Z,8.8
2018-01-17T11:55:29.273Z,11.2
2018-01-17T11:56:30.085Z,10.4
2018-01-17T11:57:30.821Z,9.1
2018-01-17T11:58:31.615Z,9.6
2018-01-17T11:59:32.426Z,15.6
2018-01-17T12:00:33.160Z,7.4
2018-01-17T12:01:33.928Z,11.6
2018-01-17T12:02:34.712Z,9.7
2018-01-17T12:03:35.429Z,8.7
2018-01-17T12:04:36.154Z,8.3
2018-01-17T12:05:36.884Z,9.7
2018-01-17T12:06:37.713Z,5.6
2018-01-17T12:07:38.494Z,7.1
2018-01-17T12:08:39.220Z,8.3
2018-01-17T12:09:39.966Z,9.6
2018-01-17T12:10:40.762Z,11.8
2018-01-17T12:11:41.515Z,13.1
2018-01-17T12:12:42.319Z,6.6
2018-01-17T12:13:43.052Z,4.7
2018-01-17T12:14:43.843Z,9.2
2018-01-17T12:15:44.650Z,6.6
2018-01-17T12:16:45.421Z,11.7
2018-01-17T12:17:46.206Z,12.4
2018-01-17T12:18:46.943Z,6.9
2018-01-17T12:19:47.753Z,9.8
2018-01-17T12:20:48.501Z,13.8
2018-01-17T12:21:49.520Z,9.3
2018-01-17T12:22:50.304Z,8.3
2018-01-17T12:23:51.024Z,8.9
2018-01-17T12:24:51.759Z,10.0
2018-01-17T12:25:52.529Z,11.1
2018-01-17T12:26:53.301Z,8.9
2018-01-17T12:27:54.037Z,8.3
2018-01-17T12:28:54.765Z,10.3
2018-01-17T12:29:55.496Z,7.6
2018-01-17T12:30:56.216Z,8.5
2018-01-17T12:31:56.944Z,12.9
2018-01-17T12:32:57.668Z,5.9
2018-01-17T12:33:58.397Z,10.0
2018-01-17T12:34:59.115Z,9.6
2018-01-17T12:35:59.833Z,10.2
2018-01-17T12:37:00.646Z,12.8
2018-01-17T12:38:01.370Z,8.9
2018-01-17T12:39:02.113Z,9.0
2018-01-17T12:40:02.878Z,5.0
2018-01-17T12:41:03.659Z,12.9
2018-01-17T12:42:04.464Z,8.7
2018-01-17T12:43:05.191Z,6.6
2018-01-17T12:44:05.943Z,12.3
2018-01-17T12:45:07.743Z,6.9
2018-01-17T12:46:08.821Z,14.6
2018-01-17T12:47:10.556Z,10.2
2018-01-17T12:48:11.573Z,8.8
2018-01-17T12:49:12.361Z,8.1
2018-01-17T12:50:13.162Z,8.6
2018-01-17T12:51:14.024Z,8.8
2018-01-17T12:52:15.450Z,11.2
2018-01-17T12:53:16.316Z,12.2
2018-01-17T12:54:17.409Z,6.5
2018-01-17T12:55:18.094Z,7.2
2018-01-17T12:56:19.510Z,7.1
2018-01-17T12:57:20.451Z,14.5
2018-01-17T12:58:21.160Z,12.1
2018-01-17T12:59:21.897Z,11.4
2018-01-17T13:00:22.976Z,6.2
2018-01-17T13:01:23.917Z,7.8
2018-01-17T13:02:24.724Z,10.6
2018-01-17T13:03:25.445Z,10.2
2018-01-17T13:04:26.173Z,8.1
2018-01-17T13:05:27.911Z,10.4
2018-01-17T13:06:28.883Z,13.1
2018-01-17T13:07:29.601Z,11.8
2018-01-17T13:08:30.338Z,7.7
2018-01-17T13:09:31.248Z,11.8
2018-01-17T13:10:32.107Z,10.6
2018-01-17T13:11:32.893Z,10.5
2018-01-17T13:12:33.616Z,7.6
2018-01-17T13:13:34.469Z,8.5
2018-01-17T13:14:35.234Z,10.5
2018-01-17T13:15:35.957Z,18.9
2018-01-17T13:16:36.849Z,10.0
2018-01-17T13:17:37.617Z,9.7
2018-01-17T13:18:38.325Z,11.7
2018-01-17T13:19:39.047Z,8.2
2018-01-17T13:20:39.782Z,8.0
2018-01-17T13:21:40.549Z,11.8
2018-01-17T13:22:41.283Z,12.8
2018-01-17T13:23:42.019Z,12.0
2018-01-17T13:24:42.832Z,5.8
2018-01-17T13:25:43.544Z,9.9
2018-01-17T13:26:44.320Z,13.0
2018-01-17T13:27:45.056Z,13.0
2018-01-17T13:28:45.757Z,10.1
2018-01-17T13:29:47.120Z,11.3
2018-01-17T13:30:48.005Z,11.6
2018-01-17T13:31:48.813Z,10.8
2018-01-17T13:32:49.598Z,11.1
2018-01-17T13:33:50.448Z,17.3
2018-01-17T13:34:51.652Z,17.8
2018-01-17T13:35:52.437Z,11.9
2018-01-17T13:36:53.591Z,17.4
2018-01-17T13:37:54.250Z,18.8
2018-01-17T13:38:54.991Z,11.5
2018-01-17T13:39:55.762Z,8.9
2018-01-17T13:40:56.502Z,11.1